Airport View

Enter AWOS ICAO identifier for current METAR.

ex. KFNL

KOUN 310335Z AUTO 08005KT 10SM CLR 21/14 A3013 RMK AO2 T02120139

31 May 2020 03:48

Frequency: 119.55

Phone: 405-325-7302

Other Area AWOS: KOKC - KTIK - KPWA - KRCE

TAF KOUN 302320Z 3100/3124 10006KT P6SM SKC FM311400 15011KT P6SM SKC